sensor_id;sensor_type;location;lat;lon;timestamp;P1;durP1;ratioP1;P2;durP2;ratioP2
14526;SDS011;7350;51.208;4.238;2022-12-29T00:01:32;1.55;;;1.00;;
14526;SDS011;7350;51.208;4.238;2022-12-29T00:03:59;1.67;;;1.40;;
14526;SDS011;7350;51.208;4.238;2022-12-29T00:06:27;6.28;;;1.70;;
14526;SDS011;7350;51.208;4.238;2022-12-29T00:08:54;1.83;;;1.52;;
14526;SDS011;7350;51.208;4.238;2022-12-29T00:11:22;3.40;;;1.40;;
14526;SDS011;7350;51.208;4.238;2022-12-29T00:13:50;2.55;;;1.42;;
14526;SDS011;7350;51.208;4.238;2022-12-29T00:16:37;3.08;;;1.38;;
14526;SDS011;7350;51.208;4.238;2022-12-29T00:19:06;1.20;;;1.15;;
14526;SDS011;7350;51.208;4.238;2022-12-29T00:21:54;2.75;;;1.35;;
14526;SDS011;7350;51.208;4.238;2022-12-29T00:24:38;3.28;;;1.60;;
14526;SDS011;7350;51.208;4.238;2022-12-29T00:27:22;2.45;;;1.45;;
14526;SDS011;7350;51.208;4.238;2022-12-29T00:30:08;1.27;;;1.17;;
14526;SDS011;7350;51.208;4.238;2022-12-29T00:32:54;1.95;;;1.55;;
14526;SDS011;7350;51.208;4.238;2022-12-29T00:35:39;1.40;;;1.00;;
14526;SDS011;7350;51.208;4.238;2022-12-29T00:38:11;1.92;;;1.20;;
14526;SDS011;7350;51.208;4.238;2022-12-29T00:40:56;1.33;;;1.23;;
14526;SDS011;7350;51.208;4.238;2022-12-29T00:43:40;2.03;;;1.10;;
14526;SDS011;7350;51.208;4.238;2022-12-29T00:46:30;2.90;;;1.27;;
14526;SDS011;7350;51.208;4.238;2022-12-29T00:48:59;2.78;;;0.82;;
14526;SDS011;7350;51.208;4.238;2022-12-29T00:51:44;1.48;;;1.10;;
14526;SDS011;7350;51.208;4.238;2022-12-29T00:54:11;1.33;;;0.90;;
14526;SDS011;7350;51.208;4.238;2022-12-29T00:56:38;2.85;;;0.90;;
14526;SDS011;7350;51.208;4.238;2022-12-29T00:59:06;1.77;;;1.00;;
14526;SDS011;7350;51.208;4.238;2022-12-29T01:01:34;4.03;;;1.10;;
14526;SDS011;7350;51.208;4.238;2022-12-29T01:04:03;2.25;;;1.58;;
14526;SDS011;7350;51.208;4.238;2022-12-29T01:06:32;2.70;;;0.95;;
14526;SDS011;7350;51.208;4.238;2022-12-29T01:08:59;2.25;;;1.00;;
14526;SDS011;7350;51.208;4.238;2022-12-29T01:11:44;3.65;;;0.82;;
14526;SDS011;7350;51.208;4.238;2022-12-29T01:14:10;4.82;;;1.10;;
14526;SDS011;7350;51.208;4.238;2022-12-29T01:16:37;1.58;;;0.60;;
14526;SDS011;7350;51.208;4.238;2022-12-29T01:19:07;1.88;;;0.70;;
14526;SDS011;7350;51.208;4.238;2022-12-29T01:21:35;2.28;;;0.82;;
14526;SDS011;7350;51.208;4.238;2022-12-29T01:24:02;4.55;;;1.25;;
14526;SDS011;7350;51.208;4.238;2022-12-29T01:26:29;2.78;;;1.00;;
14526;SDS011;7350;51.208;4.238;2022-12-29T01:28:56;3.00;;;0.80;;
14526;SDS011;7350;51.208;4.238;2022-12-29T01:31:23;2.40;;;1.10;;
14526;SDS011;7350;51.208;4.238;2022-12-29T01:33:50;2.35;;;0.90;;
14526;SDS011;7350;51.208;4.238;2022-12-29T01:36:19;2.03;;;0.82;;
14526;SDS011;7350;51.208;4.238;2022-12-29T01:38:46;4.65;;;1.05;;
14526;SDS011;7350;51.208;4.238;2022-12-29T01:41:14;2.15;;;0.93;;
14526;SDS011;7350;51.208;4.238;2022-12-29T01:43:42;1.58;;;0.80;;
14526;SDS011;7350;51.208;4.238;2022-12-29T01:46:14;2.85;;;0.77;;
14526;SDS011;7350;51.208;4.238;2022-12-29T01:48:46;4.80;;;1.05;;
14526;SDS011;7350;51.208;4.238;2022-12-29T01:51:15;2.13;;;0.80;;
14526;SDS011;7350;51.208;4.238;2022-12-29T01:53:44;4.00;;;1.40;;
14526;SDS011;7350;51.208;4.238;2022-12-29T01:56:12;4.15;;;1.13;;
14526;SDS011;7350;51.208;4.238;2022-12-29T01:58:45;2.92;;;0.90;;
14526;SDS011;7350;51.208;4.238;2022-12-29T02:01:15;5.55;;;1.33;;
14526;SDS011;7350;51.208;4.238;2022-12-29T02:03:45;2.90;;;1.02;;
14526;SDS011;7350;51.208;4.238;2022-12-29T02:06:14;2.15;;;0.90;;
14526;SDS011;7350;51.208;4.238;2022-12-29T02:08:49;5.03;;;1.10;;
14526;SDS011;7350;51.208;4.238;2022-12-29T02:11:18;3.13;;;1.00;;
14526;SDS011;7350;51.208;4.238;2022-12-29T02:13:47;2.60;;;1.17;;
14526;SDS011;7350;51.208;4.238;2022-12-29T02:16:17;2.45;;;0.90;;
14526;SDS011;7350;51.208;4.238;2022-12-29T02:18:56;2.92;;;1.23;;
14526;SDS011;7350;51.208;4.238;2022-12-29T02:21:44;1.05;;;0.60;;
14526;SDS011;7350;51.208;4.238;2022-12-29T02:27:50;5.13;;;1.05;;
14526;SDS011;7350;51.208;4.238;2022-12-29T02:33:21;3.10;;;0.80;;
14526;SDS011;7350;51.208;4.238;2022-12-29T02:35:59;3.67;;;0.85;;
14526;SDS011;7350;51.208;4.238;2022-12-29T02:38:38;4.32;;;1.08;;
14526;SDS011;7350;51.208;4.238;2022-12-29T02:41:16;5.45;;;1.23;;
14526;SDS011;7350;51.208;4.238;2022-12-29T02:43:49;4.10;;;1.25;;
14526;SDS011;7350;51.208;4.238;2022-12-29T02:46:22;1.92;;;0.75;;
14526;SDS011;7350;51.208;4.238;2022-12-29T02:48:54;2.10;;;0.85;;
14526;SDS011;7350;51.208;4.238;2022-12-29T02:51:29;4.57;;;1.00;;
14526;SDS011;7350;51.208;4.238;2022-12-29T02:53:59;4.13;;;1.05;;
14526;SDS011;7350;51.208;4.238;2022-12-29T02:56:43;3.15;;;1.13;;
14526;SDS011;7350;51.208;4.238;2022-12-29T02:59:10;2.78;;;0.80;;
14526;SDS011;7350;51.208;4.238;2022-12-29T03:01:43;4.07;;;1.13;;
14526;SDS011;7350;51.208;4.238;2022-12-29T03:04:37;2.28;;;0.80;;
14526;SDS011;7350;51.208;4.238;2022-12-29T03:07:11;3.45;;;1.20;;
14526;SDS011;7350;51.208;4.238;2022-12-29T03:09:47;3.55;;;0.90;;
14526;SDS011;7350;51.208;4.238;2022-12-29T03:12:22;1.70;;;0.88;;
14526;SDS011;7350;51.208;4.238;2022-12-29T03:15:13;4.40;;;1.13;;
14526;SDS011;7350;51.208;4.238;2022-12-29T03:18:09;3.10;;;0.95;;
14526;SDS011;7350;51.208;4.238;2022-12-29T03:20:41;4.50;;;1.02;;
14526;SDS011;7350;51.208;4.238;2022-12-29T03:23:13;4.07;;;1.20;;
14526;SDS011;7350;51.208;4.238;2022-12-29T03:25:41;6.40;;;1.27;;
14526;SDS011;7350;51.208;4.238;2022-12-29T03:28:13;4.78;;;1.10;;
14526;SDS011;7350;51.208;4.238;2022-12-29T03:30:44;3.72;;;1.17;;
14526;SDS011;7350;51.208;4.238;2022-12-29T03:33:14;3.83;;;0.80;;
14526;SDS011;7350;51.208;4.238;2022-12-29T03:35:44;3.85;;;1.10;;
14526;SDS011;7350;51.208;4.238;2022-12-29T03:38:16;3.73;;;0.93;;
14526;SDS011;7350;51.208;4.238;2022-12-29T03:40:47;3.23;;;0.80;;
14526;SDS011;7350;51.208;4.238;2022-12-29T03:43:16;4.60;;;1.10;;
14526;SDS011;7350;51.208;4.238;2022-12-29T03:45:46;5.28;;;1.10;;
14526;SDS011;7350;51.208;4.238;2022-12-29T03:48:14;5.07;;;1.55;;
14526;SDS011;7350;51.208;4.238;2022-12-29T03:50:41;5.60;;;1.00;;
14526;SDS011;7350;51.208;4.238;2022-12-29T03:53:08;5.07;;;0.95;;
14526;SDS011;7350;51.208;4.238;2022-12-29T03:55:35;5.93;;;1.30;;
14526;SDS011;7350;51.208;4.238;2022-12-29T03:58:02;4.18;;;1.45;;
14526;SDS011;7350;51.208;4.238;2022-12-29T04:00:29;3.70;;;1.35;;
14526;SDS011;7350;51.208;4.238;2022-12-29T04:02:56;4.10;;;1.20;;
14526;SDS011;7350;51.208;4.238;2022-12-29T04:05:24;2.53;;;0.70;;
14526;SDS011;7350;51.208;4.238;2022-12-29T04:07:51;3.50;;;1.38;;
14526;SDS011;7350;51.208;4.238;2022-12-29T04:10:18;6.18;;;1.15;;
14526;SDS011;7350;51.208;4.238;2022-12-29T04:12:45;6.20;;;1.15;;
14526;SDS011;7350;51.208;4.238;2022-12-29T04:15:12;7.10;;;1.50;;
14526;SDS011;7350;51.208;4.238;2022-12-29T04:17:40;4.27;;;1.00;;
14526;SDS011;7350;51.208;4.238;2022-12-29T04:20:07;5.70;;;1.53;;
14526;SDS011;7350;51.208;4.238;2022-12-29T04:22:58;4.23;;;1.10;;
14526;SDS011;7350;51.208;4.238;2022-12-29T04:25:26;8.38;;;1.42;;
14526;SDS011;7350;51.208;4.238;2022-12-29T04:27:53;4.10;;;0.90;;
14526;SDS011;7350;51.208;4.238;2022-12-29T04:30:20;5.90;;;1.58;;
14526;SDS011;7350;51.208;4.238;2022-12-29T04:32:49;5.68;;;1.27;;
14526;SDS011;7350;51.208;4.238;2022-12-29T04:35:16;5.90;;;1.30;;
14526;SDS011;7350;51.208;4.238;2022-12-29T04:37:43;7.97;;;1.45;;
14526;SDS011;7350;51.208;4.238;2022-12-29T04:40:12;7.22;;;1.30;;
14526;SDS011;7350;51.208;4.238;2022-12-29T04:42:39;5.05;;;2.17;;
14526;SDS011;7350;51.208;4.238;2022-12-29T04:45:07;5.55;;;1.10;;
14526;SDS011;7350;51.208;4.238;2022-12-29T04:47:34;3.50;;;1.08;;
14526;SDS011;7350;51.208;4.238;2022-12-29T04:50:01;6.20;;;1.15;;
14526;SDS011;7350;51.208;4.238;2022-12-29T04:52:29;4.90;;;1.52;;
14526;SDS011;7350;51.208;4.238;2022-12-29T04:54:56;5.00;;;1.13;;
14526;SDS011;7350;51.208;4.238;2022-12-29T04:57:24;4.80;;;1.10;;
14526;SDS011;7350;51.208;4.238;2022-12-29T04:59:51;6.28;;;1.50;;
14526;SDS011;7350;51.208;4.238;2022-12-29T05:02:18;7.95;;;2.03;;
14526;SDS011;7350;51.208;4.238;2022-12-29T05:04:45;7.53;;;1.15;;
14526;SDS011;7350;51.208;4.238;2022-12-29T05:07:12;8.20;;;1.38;;
14526;SDS011;7350;51.208;4.238;2022-12-29T05:09:39;3.78;;;1.15;;
14526;SDS011;7350;51.208;4.238;2022-12-29T05:12:06;3.08;;;0.95;;
14526;SDS011;7350;51.208;4.238;2022-12-29T05:14:35;6.35;;;1.13;;
14526;SDS011;7350;51.208;4.238;2022-12-29T05:17:02;5.53;;;1.05;;
14526;SDS011;7350;51.208;4.238;2022-12-29T05:19:29;2.97;;;0.93;;
14526;SDS011;7350;51.208;4.238;2022-12-29T05:21:56;3.25;;;0.80;;
14526;SDS011;7350;51.208;4.238;2022-12-29T05:24:27;4.18;;;0.93;;
14526;SDS011;7350;51.208;4.238;2022-12-29T05:26:54;4.78;;;1.13;;
14526;SDS011;7350;51.208;4.238;2022-12-29T05:29:20;3.63;;;0.93;;
14526;SDS011;7350;51.208;4.238;2022-12-29T05:31:49;5.27;;;1.10;;
14526;SDS011;7350;51.208;4.238;2022-12-29T05:34:16;3.83;;;0.93;;
14526;SDS011;7350;51.208;4.238;2022-12-29T05:36:43;5.20;;;1.07;;
14526;SDS011;7350;51.208;4.238;2022-12-29T05:39:10;3.97;;;0.90;;
14526;SDS011;7350;51.208;4.238;2022-12-29T05:41:37;4.45;;;1.08;;
14526;SDS011;7350;51.208;4.238;2022-12-29T05:44:04;3.20;;;0.98;;
14526;SDS011;7350;51.208;4.238;2022-12-29T05:46:31;5.80;;;1.15;;
14526;SDS011;7350;51.208;4.238;2022-12-29T05:48:59;3.95;;;0.98;;
14526;SDS011;7350;51.208;4.238;2022-12-29T05:51:26;5.03;;;1.27;;
14526;SDS011;7350;51.208;4.238;2022-12-29T05:53:53;4.23;;;1.10;;
14526;SDS011;7350;51.208;4.238;2022-12-29T05:56:21;2.30;;;0.73;;
14526;SDS011;7350;51.208;4.238;2022-12-29T05:58:48;4.63;;;1.10;;
14526;SDS011;7350;51.208;4.238;2022-12-29T06:01:15;3.13;;;0.85;;
14526;SDS011;7350;51.208;4.238;2022-12-29T06:03:42;3.65;;;1.08;;
14526;SDS011;7350;51.208;4.238;2022-12-29T06:06:10;5.47;;;1.05;;
14526;SDS011;7350;51.208;4.238;2022-12-29T06:08:37;4.57;;;1.52;;
14526;SDS011;7350;51.208;4.238;2022-12-29T06:11:04;7.20;;;1.70;;
14526;SDS011;7350;51.208;4.238;2022-12-29T06:13:34;5.40;;;1.00;;
14526;SDS011;7350;51.208;4.238;2022-12-29T06:16:01;5.40;;;1.27;;
14526;SDS011;7350;51.208;4.238;2022-12-29T06:18:28;6.87;;;1.83;;
14526;SDS011;7350;51.208;4.238;2022-12-29T06:20:58;7.23;;;1.00;;
14526;SDS011;7350;51.208;4.238;2022-12-29T06:23:27;6.15;;;1.48;;
14526;SDS011;7350;51.208;4.238;2022-12-29T06:25:54;6.90;;;1.43;;
14526;SDS011;7350;51.208;4.238;2022-12-29T06:28:22;7.07;;;1.77;;
14526;SDS011;7350;51.208;4.238;2022-12-29T06:30:49;6.90;;;1.57;;
14526;SDS011;7350;51.208;4.238;2022-12-29T06:33:17;7.68;;;1.73;;
14526;SDS011;7350;51.208;4.238;2022-12-29T06:35:44;7.25;;;1.50;;
14526;SDS011;7350;51.208;4.238;2022-12-29T06:38:12;5.35;;;1.38;;
14526;SDS011;7350;51.208;4.238;2022-12-29T06:40:40;7.57;;;1.83;;
14526;SDS011;7350;51.208;4.238;2022-12-29T06:43:09;8.77;;;1.58;;
14526;SDS011;7350;51.208;4.238;2022-12-29T06:45:37;5.13;;;1.20;;
14526;SDS011;7350;51.208;4.238;2022-12-29T06:48:05;5.93;;;1.17;;
14526;SDS011;7350;51.208;4.238;2022-12-29T06:50:33;6.20;;;1.40;;
14526;SDS011;7350;51.208;4.238;2022-12-29T06:53:00;7.57;;;2.10;;
14526;SDS011;7350;51.208;4.238;2022-12-29T06:55:27;8.25;;;1.45;;
14526;SDS011;7350;51.208;4.238;2022-12-29T06:57:56;5.85;;;1.60;;
14526;SDS011;7350;51.208;4.238;2022-12-29T07:00:23;5.57;;;1.63;;
14526;SDS011;7350;51.208;4.238;2022-12-29T07:02:51;7.35;;;1.80;;
14526;SDS011;7350;51.208;4.238;2022-12-29T07:05:18;10.43;;;1.50;;
14526;SDS011;7350;51.208;4.238;2022-12-29T07:07:45;4.25;;;1.20;;
14526;SDS011;7350;51.208;4.238;2022-12-29T07:10:12;8.15;;;2.03;;
14526;SDS011;7350;51.208;4.238;2022-12-29T07:12:39;6.07;;;1.58;;
14526;SDS011;7350;51.208;4.238;2022-12-29T07:15:08;10.38;;;2.10;;
14526;SDS011;7350;51.208;4.238;2022-12-29T07:17:35;9.10;;;1.93;;
14526;SDS011;7350;51.208;4.238;2022-12-29T07:20:02;10.35;;;2.50;;
14526;SDS011;7350;51.208;4.238;2022-12-29T07:22:30;7.28;;;1.73;;
14526;SDS011;7350;51.208;4.238;2022-12-29T07:24:57;6.35;;;2.20;;
14526;SDS011;7350;51.208;4.238;2022-12-29T07:27:28;7.00;;;1.45;;
14526;SDS011;7350;51.208;4.238;2022-12-29T07:29:55;5.32;;;1.58;;
14526;SDS011;7350;51.208;4.238;2022-12-29T07:32:24;7.78;;;1.50;;
14526;SDS011;7350;51.208;4.238;2022-12-29T07:34:51;10.83;;;2.17;;
14526;SDS011;7350;51.208;4.238;2022-12-29T07:37:18;7.33;;;1.60;;
14526;SDS011;7350;51.208;4.238;2022-12-29T07:39:45;5.10;;;1.67;;
14526;SDS011;7350;51.208;4.238;2022-12-29T07:42:12;8.23;;;1.87;;
14526;SDS011;7350;51.208;4.238;2022-12-29T07:44:42;7.80;;;1.90;;
14526;SDS011;7350;51.208;4.238;2022-12-29T07:47:09;5.07;;;1.60;;
14526;SDS011;7350;51.208;4.238;2022-12-29T07:49:37;6.05;;;1.58;;
14526;SDS011;7350;51.208;4.238;2022-12-29T07:52:04;10.18;;;1.85;;
14526;SDS011;7350;51.208;4.238;2022-12-29T07:54:31;7.13;;;1.35;;
14526;SDS011;7350;51.208;4.238;2022-12-29T07:56:58;5.70;;;1.25;;
14526;SDS011;7350;51.208;4.238;2022-12-29T07:59:26;10.17;;;1.73;;
14526;SDS011;7350;51.208;4.238;2022-12-29T08:01:53;10.32;;;2.15;;
14526;SDS011;7350;51.208;4.238;2022-12-29T08:04:20;6.47;;;1.55;;
14526;SDS011;7350;51.208;4.238;2022-12-29T08:06:51;5.22;;;1.55;;
14526;SDS011;7350;51.208;4.238;2022-12-29T08:09:18;8.48;;;1.77;;
14526;SDS011;7350;51.208;4.238;2022-12-29T08:11:45;10.00;;;2.10;;
14526;SDS011;7350;51.208;4.238;2022-12-29T08:14:12;8.13;;;2.33;;
14526;SDS011;7350;51.208;4.238;2022-12-29T08:16:39;9.45;;;1.70;;
14526;SDS011;7350;51.208;4.238;2022-12-29T08:19:06;12.00;;;2.03;;
14526;SDS011;7350;51.208;4.238;2022-12-29T08:21:33;9.10;;;2.43;;
14526;SDS011;7350;51.208;4.238;2022-12-29T08:24:01;8.75;;;2.08;;
14526;SDS011;7350;51.208;4.238;2022-12-29T08:26:28;8.53;;;1.70;;
14526;SDS011;7350;51.208;4.238;2022-12-29T08:28:55;5.07;;;1.58;;
14526;SDS011;7350;51.208;4.238;2022-12-29T08:31:22;9.02;;;2.13;;
14526;SDS011;7350;51.208;4.238;2022-12-29T08:33:50;7.30;;;1.70;;
14526;SDS011;7350;51.208;4.238;2022-12-29T08:36:17;5.47;;;1.25;;
14526;SDS011;7350;51.208;4.238;2022-12-29T08:38:44;9.88;;;2.47;;
14526;SDS011;7350;51.208;4.238;2022-12-29T08:41:12;3.55;;;1.40;;
14526;SDS011;7350;51.208;4.238;2022-12-29T08:43:39;8.30;;;1.60;;
14526;SDS011;7350;51.208;4.238;2022-12-29T08:46:06;8.50;;;1.87;;
14526;SDS011;7350;51.208;4.238;2022-12-29T08:48:33;7.68;;;1.85;;
14526;SDS011;7350;51.208;4.238;2022-12-29T08:51:00;9.90;;;2.40;;
14526;SDS011;7350;51.208;4.238;2022-12-29T08:53:27;10.47;;;2.10;;
14526;SDS011;7350;51.208;4.238;2022-12-29T08:55:55;6.67;;;1.63;;
14526;SDS011;7350;51.208;4.238;2022-12-29T08:58:25;10.13;;;1.60;;
14526;SDS011;7350;51.208;4.238;2022-12-29T09:00:53;10.30;;;2.00;;
14526;SDS011;7350;51.208;4.238;2022-12-29T09:03:20;12.03;;;2.20;;
14526;SDS011;7350;51.208;4.238;2022-12-29T09:05:47;7.47;;;1.87;;
14526;SDS011;7350;51.208;4.238;2022-12-29T09:08:15;12.83;;;2.60;;
14526;SDS011;7350;51.208;4.238;2022-12-29T09:10:44;10.50;;;1.97;;
14526;SDS011;7350;51.208;4.238;2022-12-29T09:13:11;11.95;;;2.08;;
14526;SDS011;7350;51.208;4.238;2022-12-29T09:15:40;7.37;;;1.77;;
14526;SDS011;7350;51.208;4.238;2022-12-29T09:18:09;8.57;;;2.10;;
14526;SDS011;7350;51.208;4.238;2022-12-29T09:20:37;7.00;;;1.80;;
14526;SDS011;7350;51.208;4.238;2022-12-29T09:23:04;11.40;;;2.37;;
14526;SDS011;7350;51.208;4.238;2022-12-29T09:25:32;9.93;;;1.77;;
14526;SDS011;7350;51.208;4.238;2022-12-29T09:27:59;9.43;;;2.00;;
14526;SDS011;7350;51.208;4.238;2022-12-29T09:30:31;5.00;;;1.48;;
14526;SDS011;7350;51.208;4.238;2022-12-29T09:32:59;11.07;;;2.60;;
14526;SDS011;7350;51.208;4.238;2022-12-29T09:35:26;8.97;;;2.23;;
14526;SDS011;7350;51.208;4.238;2022-12-29T09:37:53;9.63;;;2.27;;
14526;SDS011;7350;51.208;4.238;2022-12-29T09:40:24;8.83;;;1.90;;
14526;SDS011;7350;51.208;4.238;2022-12-29T09:43:00;11.97;;;2.60;;
14526;SDS011;7350;51.208;4.238;2022-12-29T09:45:47;10.97;;;2.63;;
14526;SDS011;7350;51.208;4.238;2022-12-29T09:48:23;13.80;;;2.70;;
14526;SDS011;7350;51.208;4.238;2022-12-29T09:50:56;7.60;;;2.23;;
14526;SDS011;7350;51.208;4.238;2022-12-29T09:53:27;17.27;;;3.13;;
14526;SDS011;7350;51.208;4.238;2022-12-29T09:56:00;10.93;;;2.40;;
14526;SDS011;7350;51.208;4.238;2022-12-29T09:58:29;12.93;;;2.57;;
14526;SDS011;7350;51.208;4.238;2022-12-29T10:01:02;11.60;;;2.10;;
14526;SDS011;7350;51.208;4.238;2022-12-29T10:03:35;9.30;;;2.23;;
14526;SDS011;7350;51.208;4.238;2022-12-29T10:06:12;11.90;;;2.60;;
14526;SDS011;7350;51.208;4.238;2022-12-29T10:08:44;9.97;;;2.23;;
14526;SDS011;7350;51.208;4.238;2022-12-29T10:11:22;13.13;;;2.77;;
14526;SDS011;7350;51.208;4.238;2022-12-29T10:14:04;10.30;;;2.17;;
14526;SDS011;7350;51.208;4.238;2022-12-29T10:16:46;12.00;;;2.07;;
14526;SDS011;7350;51.208;4.238;2022-12-29T10:19:27;14.97;;;2.80;;
14526;SDS011;7350;51.208;4.238;2022-12-29T10:22:09;8.83;;;2.03;;
14526;SDS011;7350;51.208;4.238;2022-12-29T10:24:44;8.70;;;2.10;;
14526;SDS011;7350;51.208;4.238;2022-12-29T10:27:12;11.95;;;2.58;;
14526;SDS011;7350;51.208;4.238;2022-12-29T10:29:43;12.50;;;2.65;;
14526;SDS011;7350;51.208;4.238;2022-12-29T10:32:17;12.70;;;3.10;;
14526;SDS011;7350;51.208;4.238;2022-12-29T10:34:53;9.80;;;2.27;;
14526;SDS011;7350;51.208;4.238;2022-12-29T10:37:32;13.97;;;2.27;;
14526;SDS011;7350;51.208;4.238;2022-12-29T10:40:11;8.70;;;2.30;;
14526;SDS011;7350;51.208;4.238;2022-12-29T10:42:43;11.93;;;2.60;;
14526;SDS011;7350;51.208;4.238;2022-12-29T10:45:13;12.90;;;3.07;;
14526;SDS011;7350;51.208;4.238;2022-12-29T10:47:45;15.53;;;2.87;;
14526;SDS011;7350;51.208;4.238;2022-12-29T10:50:19;11.70;;;2.57;;
14526;SDS011;7350;51.208;4.238;2022-12-29T10:52:46;8.60;;;2.07;;
14526;SDS011;7350;51.208;4.238;2022-12-29T10:55:15;9.23;;;2.42;;
14526;SDS011;7350;51.208;4.238;2022-12-29T10:57:48;15.40;;;2.97;;
14526;SDS011;7350;51.208;4.238;2022-12-29T11:00:16;14.10;;;2.83;;
14526;SDS011;7350;51.208;4.238;2022-12-29T11:05:44;11.48;;;2.58;;
14526;SDS011;7350;51.208;4.238;2022-12-29T11:08:17;12.55;;;2.40;;
14526;SDS011;7350;51.208;4.238;2022-12-29T11:10:56;11.68;;;2.40;;
14526;SDS011;7350;51.208;4.238;2022-12-29T11:13:26;13.23;;;2.30;;
14526;SDS011;7350;51.208;4.238;2022-12-29T11:15:54;12.45;;;2.33;;
14526;SDS011;7350;51.208;4.238;2022-12-29T11:18:22;9.30;;;2.38;;
14526;SDS011;7350;51.208;4.238;2022-12-29T11:20:52;11.20;;;2.08;;
14526;SDS011;7350;51.208;4.238;2022-12-29T11:23:21;7.63;;;2.20;;
14526;SDS011;7350;51.208;4.238;2022-12-29T11:26:14;12.15;;;2.80;;
14526;SDS011;7350;51.208;4.238;2022-12-29T11:28:43;9.70;;;1.98;;
14526;SDS011;7350;51.208;4.238;2022-12-29T11:31:15;7.75;;;2.03;;
14526;SDS011;7350;51.208;4.238;2022-12-29T11:33:43;7.03;;;1.35;;
14526;SDS011;7350;51.208;4.238;2022-12-29T11:36:13;10.00;;;1.90;;
14526;SDS011;7350;51.208;4.238;2022-12-29T11:38:45;7.93;;;1.67;;
14526;SDS011;7350;51.208;4.238;2022-12-29T11:41:19;7.47;;;1.27;;
14526;SDS011;7350;51.208;4.238;2022-12-29T11:43:48;5.73;;;1.30;;
14526;SDS011;7350;51.208;4.238;2022-12-29T11:46:18;11.13;;;2.70;;
14526;SDS011;7350;51.208;4.238;2022-12-29T11:48:48;6.03;;;1.70;;
14526;SDS011;7350;51.208;4.238;2022-12-29T11:51:26;7.65;;;1.55;;
14526;SDS011;7350;51.208;4.238;2022-12-29T11:53:56;7.05;;;1.88;;
14526;SDS011;7350;51.208;4.238;2022-12-29T11:56:35;6.83;;;1.83;;
14526;SDS011;7350;51.208;4.238;2022-12-29T11:59:24;6.88;;;1.42;;
14526;SDS011;7350;51.208;4.238;2022-12-29T12:02:03;7.78;;;1.70;;
14526;SDS011;7350;51.208;4.238;2022-12-29T12:04:54;7.93;;;1.60;;
14526;SDS011;7350;51.208;4.238;2022-12-29T12:07:32;8.60;;;1.88;;
14526;SDS011;7350;51.208;4.238;2022-12-29T12:10:04;7.73;;;1.90;;
14526;SDS011;7350;51.208;4.238;2022-12-29T12:12:39;7.93;;;2.00;;
14526;SDS011;7350;51.208;4.238;2022-12-29T12:15:15;7.43;;;1.77;;
14526;SDS011;7350;51.208;4.238;2022-12-29T12:17:49;9.27;;;1.40;;
14526;SDS011;7350;51.208;4.238;2022-12-29T12:20:20;10.07;;;2.08;;
14526;SDS011;7350;51.208;4.238;2022-12-29T12:22:54;4.68;;;1.52;;
14526;SDS011;7350;51.208;4.238;2022-12-29T12:25:29;11.40;;;3.00;;
14526;SDS011;7350;51.208;4.238;2022-12-29T12:28:04;10.00;;;2.35;;
14526;SDS011;7350;51.208;4.238;2022-12-29T12:30:38;6.73;;;2.00;;
14526;SDS011;7350;51.208;4.238;2022-12-29T12:33:13;6.10;;;1.60;;
14526;SDS011;7350;51.208;4.238;2022-12-29T12:35:48;5.95;;;1.85;;
14526;SDS011;7350;51.208;4.238;2022-12-29T12:38:23;8.80;;;1.90;;
14526;SDS011;7350;51.208;4.238;2022-12-29T12:41:00;9.30;;;2.57;;
14526;SDS011;7350;51.208;4.238;2022-12-29T12:43:37;11.52;;;2.50;;
14526;SDS011;7350;51.208;4.238;2022-12-29T12:46:17;7.33;;;2.23;;
14526;SDS011;7350;51.208;4.238;2022-12-29T12:49:01;13.60;;;2.38;;
14526;SDS011;7350;51.208;4.238;2022-12-29T12:52:04;13.75;;;2.60;;
14526;SDS011;7350;51.208;4.238;2022-12-29T12:54:49;9.32;;;2.58;;
14526;SDS011;7350;51.208;4.238;2022-12-29T12:57:32;12.13;;;2.70;;
14526;SDS011;7350;51.208;4.238;2022-12-29T13:00:09;9.52;;;2.65;;
14526;SDS011;7350;51.208;4.238;2022-12-29T13:02:41;11.80;;;2.20;;
14526;SDS011;7350;51.208;4.238;2022-12-29T13:05:34;9.45;;;2.53;;
14526;SDS011;7350;51.208;4.238;2022-12-29T13:08:30;8.52;;;2.22;;
14526;SDS011;7350;51.208;4.238;2022-12-29T13:11:22;10.50;;;2.30;;
14526;SDS011;7350;51.208;4.238;2022-12-29T13:14:04;4.97;;;1.58;;
14526;SDS011;7350;51.208;4.238;2022-12-29T13:16:41;7.25;;;1.33;;
14526;SDS011;7350;51.208;4.238;2022-12-29T13:19:14;5.90;;;1.52;;
14526;SDS011;7350;51.208;4.238;2022-12-29T13:21:52;4.63;;;1.30;;
14526;SDS011;7350;51.208;4.238;2022-12-29T13:24:28;6.10;;;1.30;;
14526;SDS011;7350;51.208;4.238;2022-12-29T13:27:03;5.67;;;1.30;;
14526;SDS011;7350;51.208;4.238;2022-12-29T13:29:40;6.07;;;1.10;;
14526;SDS011;7350;51.208;4.238;2022-12-29T13:32:20;7.80;;;1.40;;
14526;SDS011;7350;51.208;4.238;2022-12-29T13:34:54;5.28;;;1.20;;
14526;SDS011;7350;51.208;4.238;2022-12-29T13:37:33;4.05;;;1.30;;
14526;SDS011;7350;51.208;4.238;2022-12-29T13:40:03;9.55;;;1.80;;
14526;SDS011;7350;51.208;4.238;2022-12-29T13:42:38;5.53;;;1.50;;
14526;SDS011;7350;51.208;4.238;2022-12-29T13:45:09;8.17;;;1.83;;
14526;SDS011;7350;51.208;4.238;2022-12-29T13:47:41;5.53;;;1.50;;
14526;SDS011;7350;51.208;4.238;2022-12-29T13:50:12;6.82;;;1.20;;
14526;SDS011;7350;51.208;4.238;2022-12-29T13:52:43;4.87;;;1.50;;
14526;SDS011;7350;51.208;4.238;2022-12-29T13:55:21;4.67;;;1.23;;
14526;SDS011;7350;51.208;4.238;2022-12-29T13:57:56;8.55;;;1.25;;
14526;SDS011;7350;51.208;4.238;2022-12-29T14:00:33;5.32;;;1.45;;
14526;SDS011;7350;51.208;4.238;2022-12-29T14:09:02;4.32;;;1.23;;
14526;SDS011;7350;51.208;4.238;2022-12-29T14:11:32;5.40;;;1.27;;
14526;SDS011;7350;51.208;4.238;2022-12-29T14:14:12;4.27;;;0.90;;
14526;SDS011;7350;51.208;4.238;2022-12-29T14:16:46;1.77;;;0.90;;
14526;SDS011;7350;51.208;4.238;2022-12-29T14:19:15;2.90;;;0.67;;
14526;SDS011;7350;51.208;4.238;2022-12-29T14:21:52;3.20;;;0.83;;
14526;SDS011;7350;51.208;4.238;2022-12-29T14:33:18;3.50;;;0.90;;
14526;SDS011;7350;51.208;4.238;2022-12-29T14:35:47;4.80;;;1.40;;
14526;SDS011;7350;51.208;4.238;2022-12-29T14:41:29;5.27;;;1.20;;
14526;SDS011;7350;51.208;4.238;2022-12-29T14:44:08;3.17;;;1.20;;
14526;SDS011;7350;51.208;4.238;2022-12-29T14:49:30;4.30;;;1.10;;
14526;SDS011;7350;51.208;4.238;2022-12-29T14:52:06;5.03;;;0.90;;
14526;SDS011;7350;51.208;4.238;2022-12-29T14:54:46;3.83;;;1.03;;
14526;SDS011;7350;51.208;4.238;2022-12-29T15:00:08;3.47;;;0.77;;
14526;SDS011;7350;51.208;4.238;2022-12-29T15:02:46;4.13;;;0.90;;
14526;SDS011;7350;51.208;4.238;2022-12-29T15:05:22;4.20;;;1.17;;
14526;SDS011;7350;51.208;4.238;2022-12-29T15:07:56;2.77;;;0.97;;
14526;SDS011;7350;51.208;4.238;2022-12-29T15:10:24;2.10;;;1.07;;
14526;SDS011;7350;51.208;4.238;2022-12-29T15:13:00;1.70;;;0.70;;
14526;SDS011;7350;51.208;4.238;2022-12-29T15:15:35;3.07;;;0.97;;
14526;SDS011;7350;51.208;4.238;2022-12-29T15:18:24;4.37;;;1.30;;
14526;SDS011;7350;51.208;4.238;2022-12-29T15:20:53;4.47;;;1.27;;
14526;SDS011;7350;51.208;4.238;2022-12-29T15:23:21;2.63;;;1.07;;
14526;SDS011;7350;51.208;4.238;2022-12-29T15:25:50;3.73;;;1.00;;
14526;SDS011;7350;51.208;4.238;2022-12-29T15:28:20;7.03;;;1.40;;
14526;SDS011;7350;51.208;4.238;2022-12-29T15:30:52;5.80;;;1.80;;
14526;SDS011;7350;51.208;4.238;2022-12-29T15:33:21;5.60;;;1.40;;
14526;SDS011;7350;51.208;4.238;2022-12-29T15:35:51;6.00;;;1.17;;
14526;SDS011;7350;51.208;4.238;2022-12-29T15:38:21;6.50;;;1.60;;
14526;SDS011;7350;51.208;4.238;2022-12-29T15:40:51;7.03;;;1.50;;
14526;SDS011;7350;51.208;4.238;2022-12-29T15:43:32;5.97;;;1.83;;
14526;SDS011;7350;51.208;4.238;2022-12-29T15:46:11;7.70;;;1.63;;
14526;SDS011;7350;51.208;4.238;2022-12-29T15:48:39;10.90;;;2.70;;
14526;SDS011;7350;51.208;4.238;2022-12-29T15:51:12;8.03;;;1.70;;
14526;SDS011;7350;51.208;4.238;2022-12-29T15:53:47;8.60;;;2.03;;
14526;SDS011;7350;51.208;4.238;2022-12-29T15:56:16;9.57;;;2.27;;
14526;SDS011;7350;51.208;4.238;2022-12-29T15:58:44;10.20;;;3.20;;
14526;SDS011;7350;51.208;4.238;2022-12-29T16:01:17;5.90;;;1.60;;